sensor_id;sensor_type;location;lat;lon;timestamp;temperature;humidity
61672;DHT22;47572;0.00000000;0.00000000;2023-02-10T00:00:45;18.70;66.20
61672;DHT22;47572;0.00000000;0.00000000;2023-02-10T00:03:10;18.70;66.30
61672;DHT22;47572;0.00000000;0.00000000;2023-02-10T00:05:36;18.70;66.20
61672;DHT22;47572;0.00000000;0.00000000;2023-02-10T00:08:02;18.60;66.10
61672;DHT22;47572;0.00000000;0.00000000;2023-02-10T00:10:28;18.60;66.20
61672;DHT22;47572;0.00000000;0.00000000;2023-02-10T00:12:54;18.60;66.20
61672;DHT22;47572;0.00000000;0.00000000;2023-02-10T00:15:19;18.60;66.20
61672;DHT22;47572;0.00000000;0.00000000;2023-02-10T00:17:45;18.60;66.20
61672;DHT22;47572;0.00000000;0.00000000;2023-02-10T00:20:11;18.60;66.20
61672;DHT22;47572;0.00000000;0.00000000;2023-02-10T00:22:37;18.60;66.20
61672;DHT22;47572;0.00000000;0.00000000;2023-02-10T00:25:03;18.60;66.20
61672;DHT22;47572;0.00000000;0.00000000;2023-02-10T00:27:29;18.50;66.20
61672;DHT22;47572;0.00000000;0.00000000;2023-02-10T00:29:54;18.50;66.20
61672;DHT22;47572;0.00000000;0.00000000;2023-02-10T00:32:20;18.60;66.20
61672;DHT22;47572;0.00000000;0.00000000;2023-02-10T00:34:47;18.50;66.10
61672;DHT22;47572;0.00000000;0.00000000;2023-02-10T00:37:13;18.50;66.10
61672;DHT22;47572;0.00000000;0.00000000;2023-02-10T00:39:39;18.50;66.10
61672;DHT22;47572;0.00000000;0.00000000;2023-02-10T00:42:04;18.40;66.10
61672;DHT22;47572;0.00000000;0.00000000;2023-02-10T00:44:30;18.40;66.10
61672;DHT22;47572;0.00000000;0.00000000;2023-02-10T00:46:56;18.40;66.10
61672;DHT22;47572;0.00000000;0.00000000;2023-02-10T00:49:22;18.40;66.10
61672;DHT22;47572;0.00000000;0.00000000;2023-02-10T00:51:47;18.40;66.10
61672;DHT22;47572;0.00000000;0.00000000;2023-02-10T00:54:13;18.40;66.10
61672;DHT22;47572;0.00000000;0.00000000;2023-02-10T00:56:40;18.40;66.10
61672;DHT22;47572;0.00000000;0.00000000;2023-02-10T00:59:06;18.40;66.10
61672;DHT22;47572;0.00000000;0.00000000;2023-02-10T01:01:32;18.30;66.00
61672;DHT22;47572;0.00000000;0.00000000;2023-02-10T01:03:58;18.30;66.00
61672;DHT22;47572;0.00000000;0.00000000;2023-02-10T01:06:24;18.30;66.00
61672;DHT22;47572;0.00000000;0.00000000;2023-02-10T01:08:49;18.30;66.00
61672;DHT22;47572;0.00000000;0.00000000;2023-02-10T01:11:15;18.30;65.90
61672;DHT22;47572;0.00000000;0.00000000;2023-02-10T01:13:42;18.30;66.00
61672;DHT22;47572;0.00000000;0.00000000;2023-02-10T01:16:12;18.30;66.00
61672;DHT22;47572;0.00000000;0.00000000;2023-02-10T01:18:39;18.20;65.90
61672;DHT22;47572;0.00000000;0.00000000;2023-02-10T01:21:07;18.20;66.80
61672;DHT22;47572;0.00000000;0.00000000;2023-02-10T01:23:33;18.20;66.00
61672;DHT22;47572;0.00000000;0.00000000;2023-02-10T01:26:00;18.20;66.00
61672;DHT22;47572;0.00000000;0.00000000;2023-02-10T01:28:26;18.20;66.00
61672;DHT22;47572;0.00000000;0.00000000;2023-02-10T01:30:51;18.20;66.00
61672;DHT22;47572;0.00000000;0.00000000;2023-02-10T01:33:17;18.20;66.00
61672;DHT22;47572;0.00000000;0.00000000;2023-02-10T01:35:44;18.20;66.00
61672;DHT22;47572;0.00000000;0.00000000;2023-02-10T01:38:10;18.20;66.00
61672;DHT22;47572;0.00000000;0.00000000;2023-02-10T01:40:36;18.10;65.90
61672;DHT22;47572;0.00000000;0.00000000;2023-02-10T01:43:02;18.10;65.90
61672;DHT22;47572;0.00000000;0.00000000;2023-02-10T01:45:35;18.10;66.00
61672;DHT22;47572;0.00000000;0.00000000;2023-02-10T01:48:01;18.10;66.00
61672;DHT22;47572;0.00000000;0.00000000;2023-02-10T01:50:41;18.10;66.00
61672;DHT22;47572;0.00000000;0.00000000;2023-02-10T01:53:08;18.10;65.90
61672;DHT22;47572;0.00000000;0.00000000;2023-02-10T01:55:35;18.10;66.00
61672;DHT22;47572;0.00000000;0.00000000;2023-02-10T01:58:05;18.10;65.90
61672;DHT22;47572;0.00000000;0.00000000;2023-02-10T02:00:32;18.00;65.90
61672;DHT22;47572;0.00000000;0.00000000;2023-02-10T02:02:58;18.00;65.90
61672;DHT22;47572;0.00000000;0.00000000;2023-02-10T02:05:36;18.00;66.00
61672;DHT22;47572;0.00000000;0.00000000;2023-02-10T02:08:24;18.00;66.00
61672;DHT22;47572;0.00000000;0.00000000;2023-02-10T02:11:02;18.00;66.00
61672;DHT22;47572;0.00000000;0.00000000;2023-02-10T02:23:49;18.00;66.00
61672;DHT22;47572;0.00000000;0.00000000;2023-02-10T02:32:02;17.90;66.00
61672;DHT22;47572;0.00000000;0.00000000;2023-02-10T02:34:40;17.90;66.10
61672;DHT22;47572;0.00000000;0.00000000;2023-02-10T02:37:15;17.90;66.00
61672;DHT22;47572;0.00000000;0.00000000;2023-02-10T02:39:43;17.90;66.10
61672;DHT22;47572;0.00000000;0.00000000;2023-02-10T02:42:22;17.90;66.20
61672;DHT22;47572;0.00000000;0.00000000;2023-02-10T02:44:55;17.80;66.10
61672;DHT22;47572;0.00000000;0.00000000;2023-02-10T02:50:38;17.80;66.10
61672;DHT22;47572;0.00000000;0.00000000;2023-02-10T03:00:47;17.80;66.10
61672;DHT22;47572;0.00000000;0.00000000;2023-02-10T03:03:15;17.80;66.10
61672;DHT22;47572;0.00000000;0.00000000;2023-02-10T03:05:41;17.80;67.00
61672;DHT22;47572;0.00000000;0.00000000;2023-02-10T03:08:07;17.70;66.10
61672;DHT22;47572;0.00000000;0.00000000;2023-02-10T03:10:33;17.70;66.20
61672;DHT22;47572;0.00000000;0.00000000;2023-02-10T03:12:59;17.70;66.10
61672;DHT22;47572;0.00000000;0.00000000;2023-02-10T03:15:25;17.70;66.20
61672;DHT22;47572;0.00000000;0.00000000;2023-02-10T03:17:51;17.70;66.20
61672;DHT22;47572;0.00000000;0.00000000;2023-02-10T03:20:17;17.70;66.20
61672;DHT22;47572;0.00000000;0.00000000;2023-02-10T03:22:43;17.70;66.20
61672;DHT22;47572;0.00000000;0.00000000;2023-02-10T03:25:09;17.70;66.20
61672;DHT22;47572;0.00000000;0.00000000;2023-02-10T03:27:35;17.70;66.20
61672;DHT22;47572;0.00000000;0.00000000;2023-02-10T03:30:01;17.60;66.20
61672;DHT22;47572;0.00000000;0.00000000;2023-02-10T03:32:27;17.60;66.20
61672;DHT22;47572;0.00000000;0.00000000;2023-02-10T03:34:53;17.60;66.20
61672;DHT22;47572;0.00000000;0.00000000;2023-02-10T03:37:19;17.60;66.20
61672;DHT22;47572;0.00000000;0.00000000;2023-02-10T03:39:46;17.60;66.20
61672;DHT22;47572;0.00000000;0.00000000;2023-02-10T03:42:12;17.60;66.20
61672;DHT22;47572;0.00000000;0.00000000;2023-02-10T03:44:38;17.60;66.20
61672;DHT22;47572;0.00000000;0.00000000;2023-02-10T03:47:04;17.60;66.20
61672;DHT22;47572;0.00000000;0.00000000;2023-02-10T03:49:30;17.60;66.20
61672;DHT22;47572;0.00000000;0.00000000;2023-02-10T03:51:55;17.50;66.20
61672;DHT22;47572;0.00000000;0.00000000;2023-02-10T03:54:21;17.50;66.20
61672;DHT22;47572;0.00000000;0.00000000;2023-02-10T03:56:47;17.50;66.10
61672;DHT22;47572;0.00000000;0.00000000;2023-02-10T03:59:13;17.50;66.10
61672;DHT22;47572;0.00000000;0.00000000;2023-02-10T04:01:38;17.50;66.30
61672;DHT22;47572;0.00000000;0.00000000;2023-02-10T04:04:04;17.50;66.10
61672;DHT22;47572;0.00000000;0.00000000;2023-02-10T04:06:30;17.50;66.20
61672;DHT22;47572;0.00000000;0.00000000;2023-02-10T04:08:56;17.50;66.30
61672;DHT22;47572;0.00000000;0.00000000;2023-02-10T04:11:22;17.50;66.30
61672;DHT22;47572;0.00000000;0.00000000;2023-02-10T04:13:47;17.50;66.20
61672;DHT22;47572;0.00000000;0.00000000;2023-02-10T04:16:15;17.50;66.20
61672;DHT22;47572;0.00000000;0.00000000;2023-02-10T04:18:41;17.50;66.20
61672;DHT22;47572;0.00000000;0.00000000;2023-02-10T04:21:09;17.40;66.20
61672;DHT22;47572;0.00000000;0.00000000;2023-02-10T04:23:36;17.40;66.10
61672;DHT22;47572;0.00000000;0.00000000;2023-02-10T04:26:02;17.40;66.10
61672;DHT22;47572;0.00000000;0.00000000;2023-02-10T04:28:29;17.40;66.20
61672;DHT22;47572;0.00000000;0.00000000;2023-02-10T04:30:57;17.40;66.20
61672;DHT22;47572;0.00000000;0.00000000;2023-02-10T04:33:25;17.40;66.20
61672;DHT22;47572;0.00000000;0.00000000;2023-02-10T04:35:52;17.40;66.10
61672;DHT22;47572;0.00000000;0.00000000;2023-02-10T04:38:20;17.40;66.10
61672;DHT22;47572;0.00000000;0.00000000;2023-02-10T04:40:45;17.40;66.00
61672;DHT22;47572;0.00000000;0.00000000;2023-02-10T04:43:11;17.40;66.00
61672;DHT22;47572;0.00000000;0.00000000;2023-02-10T04:45:38;17.40;65.90
61672;DHT22;47572;0.00000000;0.00000000;2023-02-10T04:48:04;17.40;65.80
61672;DHT22;47572;0.00000000;0.00000000;2023-02-10T04:50:31;17.40;66.60
61672;DHT22;47572;0.00000000;0.00000000;2023-02-10T04:52:57;17.40;65.70
61672;DHT22;47572;0.00000000;0.00000000;2023-02-10T04:55:22;17.50;65.70
61672;DHT22;47572;0.00000000;0.00000000;2023-02-10T04:57:48;17.50;65.60
61672;DHT22;47572;0.00000000;0.00000000;2023-02-10T05:00:14;17.50;65.50
61672;DHT22;47572;0.00000000;0.00000000;2023-02-10T05:02:40;17.50;65.40
61672;DHT22;47572;0.00000000;0.00000000;2023-02-10T05:05:06;17.50;65.30
61672;DHT22;47572;0.00000000;0.00000000;2023-02-10T05:07:33;17.50;65.30
61672;DHT22;47572;0.00000000;0.00000000;2023-02-10T05:09:58;17.50;65.10
61672;DHT22;47572;0.00000000;0.00000000;2023-02-10T05:12:24;17.50;65.00
61672;DHT22;47572;0.00000000;0.00000000;2023-02-10T05:14:51;17.60;65.00
61672;DHT22;47572;0.00000000;0.00000000;2023-02-10T05:17:17;17.60;65.90
61672;DHT22;47572;0.00000000;0.00000000;2023-02-10T05:19:42;17.60;64.90
61672;DHT22;47572;0.00000000;0.00000000;2023-02-10T05:22:08;17.60;64.90
61672;DHT22;47572;0.00000000;0.00000000;2023-02-10T05:24:34;17.60;64.80
61672;DHT22;47572;0.00000000;0.00000000;2023-02-10T05:27:00;17.60;64.80
61672;DHT22;47572;0.00000000;0.00000000;2023-02-10T05:29:26;17.60;64.80
61672;DHT22;47572;0.00000000;0.00000000;2023-02-10T05:31:52;17.60;64.80
61672;DHT22;47572;0.00000000;0.00000000;2023-02-10T05:34:17;17.60;64.80
61672;DHT22;47572;0.00000000;0.00000000;2023-02-10T05:36:43;17.60;64.80
61672;DHT22;47572;0.00000000;0.00000000;2023-02-10T05:39:11;17.60;64.90
61672;DHT22;47572;0.00000000;0.00000000;2023-02-10T05:41:56;17.60;64.90
61672;DHT22;47572;0.00000000;0.00000000;2023-02-10T05:44:23;17.60;64.80
61672;DHT22;47572;0.00000000;0.00000000;2023-02-10T05:46:50;17.60;64.80
61672;DHT22;47572;0.00000000;0.00000000;2023-02-10T05:49:16;17.60;64.90
61672;DHT22;47572;0.00000000;0.00000000;2023-02-10T05:51:45;17.60;64.80
61672;DHT22;47572;0.00000000;0.00000000;2023-02-10T05:54:12;17.60;64.80
61672;DHT22;47572;0.00000000;0.00000000;2023-02-10T05:56:38;17.60;64.80
61672;DHT22;47572;0.00000000;0.00000000;2023-02-10T05:59:05;17.60;64.70
61672;DHT22;47572;0.00000000;0.00000000;2023-02-10T06:01:31;17.60;64.70
61672;DHT22;47572;0.00000000;0.00000000;2023-02-10T06:03:57;17.60;64.70
61672;DHT22;47572;0.00000000;0.00000000;2023-02-10T06:06:23;17.60;64.70
61672;DHT22;47572;0.00000000;0.00000000;2023-02-10T06:08:49;17.60;64.70
61672;DHT22;47572;0.00000000;0.00000000;2023-02-10T06:11:15;17.60;64.70
61672;DHT22;47572;0.00000000;0.00000000;2023-02-10T06:13:41;17.60;64.70
61672;DHT22;47572;0.00000000;0.00000000;2023-02-10T06:16:08;17.60;64.70
61672;DHT22;47572;0.00000000;0.00000000;2023-02-10T06:18:34;17.60;64.70
61672;DHT22;47572;0.00000000;0.00000000;2023-02-10T06:21:00;17.60;64.60
61672;DHT22;47572;0.00000000;0.00000000;2023-02-10T06:23:26;17.60;64.60
61672;DHT22;47572;0.00000000;0.00000000;2023-02-10T06:25:52;17.60;64.60
61672;DHT22;47572;0.00000000;0.00000000;2023-02-10T06:28:24;17.60;64.60
61672;DHT22;47572;0.00000000;0.00000000;2023-02-10T06:30:51;17.60;64.50
61672;DHT22;47572;0.00000000;0.00000000;2023-02-10T06:33:17;17.60;64.50
61672;DHT22;47572;0.00000000;0.00000000;2023-02-10T06:35:43;17.60;64.50
61672;DHT22;47572;0.00000000;0.00000000;2023-02-10T06:38:09;17.60;64.50
61672;DHT22;47572;0.00000000;0.00000000;2023-02-10T06:40:36;17.60;64.50
61672;DHT22;47572;0.00000000;0.00000000;2023-02-10T06:43:02;17.60;64.50
61672;DHT22;47572;0.00000000;0.00000000;2023-02-10T06:45:28;17.60;64.50
61672;DHT22;47572;0.00000000;0.00000000;2023-02-10T06:47:54;17.60;64.50
61672;DHT22;47572;0.00000000;0.00000000;2023-02-10T06:50:21;17.60;64.50
61672;DHT22;47572;0.00000000;0.00000000;2023-02-10T06:52:47;17.60;64.50
61672;DHT22;47572;0.00000000;0.00000000;2023-02-10T06:55:13;17.60;64.50
61672;DHT22;47572;0.00000000;0.00000000;2023-02-10T06:57:39;17.60;64.50
61672;DHT22;47572;0.00000000;0.00000000;2023-02-10T07:00:08;17.50;64.50
61672;DHT22;47572;0.00000000;0.00000000;2023-02-10T07:02:36;17.50;64.40
61672;DHT22;47572;0.00000000;0.00000000;2023-02-10T07:05:06;17.50;64.40
61672;DHT22;47572;0.00000000;0.00000000;2023-02-10T07:07:33;17.50;64.50
61672;DHT22;47572;0.00000000;0.00000000;2023-02-10T07:10:00;17.50;64.50
61672;DHT22;47572;0.00000000;0.00000000;2023-02-10T07:12:26;17.50;64.50
61672;DHT22;47572;0.00000000;0.00000000;2023-02-10T07:14:52;17.50;64.50
61672;DHT22;47572;0.00000000;0.00000000;2023-02-10T07:17:18;17.50;64.40
61672;DHT22;47572;0.00000000;0.00000000;2023-02-10T07:19:44;17.50;64.50
61672;DHT22;47572;0.00000000;0.00000000;2023-02-10T07:22:10;17.50;64.40
61672;DHT22;47572;0.00000000;0.00000000;2023-02-10T07:24:58;17.50;64.50
61672;DHT22;47572;0.00000000;0.00000000;2023-02-10T07:27:24;17.50;64.40
61672;DHT22;47572;0.00000000;0.00000000;2023-02-10T07:29:50;17.50;64.40
61672;DHT22;47572;0.00000000;0.00000000;2023-02-10T07:32:15;17.50;64.40
61672;DHT22;47572;0.00000000;0.00000000;2023-02-10T07:34:41;17.50;64.30
61672;DHT22;47572;0.00000000;0.00000000;2023-02-10T07:37:08;17.50;64.30
61672;DHT22;47572;0.00000000;0.00000000;2023-02-10T07:39:35;17.50;64.40
61672;DHT22;47572;0.00000000;0.00000000;2023-02-10T07:42:01;17.50;64.30
61672;DHT22;47572;0.00000000;0.00000000;2023-02-10T07:44:27;17.50;64.30
61672;DHT22;47572;0.00000000;0.00000000;2023-02-10T07:46:53;17.50;64.30
61672;DHT22;47572;0.00000000;0.00000000;2023-02-10T07:49:19;17.50;64.30
61672;DHT22;47572;0.00000000;0.00000000;2023-02-10T07:51:45;17.50;65.10
61672;DHT22;47572;0.00000000;0.00000000;2023-02-10T07:54:11;17.50;64.30
61672;DHT22;47572;0.00000000;0.00000000;2023-02-10T07:56:37;17.40;65.10
61672;DHT22;47572;0.00000000;0.00000000;2023-02-10T07:59:03;17.40;64.20
61672;DHT22;47572;0.00000000;0.00000000;2023-02-10T08:01:29;17.40;64.20
61672;DHT22;47572;0.00000000;0.00000000;2023-02-10T08:03:54;17.40;64.20
61672;DHT22;47572;0.00000000;0.00000000;2023-02-10T08:06:24;17.40;64.30
61672;DHT22;47572;0.00000000;0.00000000;2023-02-10T08:08:50;17.40;64.40
61672;DHT22;47572;0.00000000;0.00000000;2023-02-10T08:11:17;17.40;64.60
61672;DHT22;47572;0.00000000;0.00000000;2023-02-10T08:13:43;17.40;64.80
61672;DHT22;47572;0.00000000;0.00000000;2023-02-10T08:16:09;17.40;65.10
61672;DHT22;47572;0.00000000;0.00000000;2023-02-10T08:18:40;17.40;65.40
61672;DHT22;47572;0.00000000;0.00000000;2023-02-10T08:21:07;17.40;65.50
61672;DHT22;47572;0.00000000;0.00000000;2023-02-10T08:23:34;17.50;65.50
61672;DHT22;47572;0.00000000;0.00000000;2023-02-10T08:26:08;17.50;65.40
61672;DHT22;47572;0.00000000;0.00000000;2023-02-10T08:28:35;17.70;66.00
61672;DHT22;47572;0.00000000;0.00000000;2023-02-10T08:31:06;17.80;64.70
61672;DHT22;47572;0.00000000;0.00000000;2023-02-10T08:33:37;18.00;64.40
61672;DHT22;47572;0.00000000;0.00000000;2023-02-10T08:36:08;18.20;63.90
61672;DHT22;47572;0.00000000;0.00000000;2023-02-10T08:38:34;18.30;63.50
61672;DHT22;47572;0.00000000;0.00000000;2023-02-10T08:41:00;18.50;63.20
61672;DHT22;47572;0.00000000;0.00000000;2023-02-10T08:43:28;18.60;62.70
61672;DHT22;47572;0.00000000;0.00000000;2023-02-10T08:45:58;18.80;62.40
61672;DHT22;47572;0.00000000;0.00000000;2023-02-10T08:48:24;18.90;62.00
61672;DHT22;47572;0.00000000;0.00000000;2023-02-10T08:50:51;19.10;61.70
61672;DHT22;47572;0.00000000;0.00000000;2023-02-10T08:53:17;19.20;61.40
61672;DHT22;47572;0.00000000;0.00000000;2023-02-10T08:55:43;19.30;61.10
61672;DHT22;47572;0.00000000;0.00000000;2023-02-10T08:58:08;19.40;60.80
61672;DHT22;47572;0.00000000;0.00000000;2023-02-10T09:00:34;19.50;60.70
61672;DHT22;47572;0.00000000;0.00000000;2023-02-10T09:03:00;19.60;60.50
61672;DHT22;47572;0.00000000;0.00000000;2023-02-10T09:05:26;19.60;60.40
61672;DHT22;47572;0.00000000;0.00000000;2023-02-10T09:07:52;19.70;60.40
61672;DHT22;47572;0.00000000;0.00000000;2023-02-10T09:10:18;19.70;60.40
61672;DHT22;47572;0.00000000;0.00000000;2023-02-10T09:12:44;19.70;60.30
61672;DHT22;47572;0.00000000;0.00000000;2023-02-10T09:15:10;19.70;60.40
61672;DHT22;47572;0.00000000;0.00000000;2023-02-10T09:17:36;19.80;60.40
61672;DHT22;47572;0.00000000;0.00000000;2023-02-10T09:20:02;19.80;60.30
61672;DHT22;47572;0.00000000;0.00000000;2023-02-10T09:22:29;19.80;60.30
61672;DHT22;47572;0.00000000;0.00000000;2023-02-10T09:24:54;19.80;60.30
61672;DHT22;47572;0.00000000;0.00000000;2023-02-10T09:27:20;19.90;61.20
61672;DHT22;47572;0.00000000;0.00000000;2023-02-10T09:29:47;19.90;60.40
61672;DHT22;47572;0.00000000;0.00000000;2023-02-10T09:32:13;19.90;60.30
61672;DHT22;47572;0.00000000;0.00000000;2023-02-10T09:34:40;19.90;60.30
61672;DHT22;47572;0.00000000;0.00000000;2023-02-10T09:37:06;19.90;60.30
61672;DHT22;47572;0.00000000;0.00000000;2023-02-10T09:39:32;19.90;60.30
61672;DHT22;47572;0.00000000;0.00000000;2023-02-10T09:42:20;19.90;60.30
61672;DHT22;47572;0.00000000;0.00000000;2023-02-10T09:44:55;19.90;60.20
61672;DHT22;47572;0.00000000;0.00000000;2023-02-10T09:47:56;19.90;60.30
61672;DHT22;47572;0.00000000;0.00000000;2023-02-10T09:50:50;19.90;60.40
61672;DHT22;47572;0.00000000;0.00000000;2023-02-10T09:53:29;19.90;60.40
61672;DHT22;47572;0.00000000;0.00000000;2023-02-10T09:56:07;19.90;60.40
61672;DHT22;47572;0.00000000;0.00000000;2023-02-10T09:58:56;19.90;60.30
61672;DHT22;47572;0.00000000;0.00000000;2023-02-10T10:01:26;19.90;60.30
61672;DHT22;47572;0.00000000;0.00000000;2023-02-10T10:06:43;20.00;60.50
61672;DHT22;47572;0.00000000;0.00000000;2023-02-10T10:11:46;20.00;60.60
61672;DHT22;47572;0.00000000;0.00000000;2023-02-10T10:30:18;20.10;61.00
61672;DHT22;47572;0.00000000;0.00000000;2023-02-10T10:32:56;20.10;61.10
61672;DHT22;47572;0.00000000;0.00000000;2023-02-10T10:35:28;20.10;61.10
61672;DHT22;47572;0.00000000;0.00000000;2023-02-10T10:37:55;20.10;61.20
61672;DHT22;47572;0.00000000;0.00000000;2023-02-10T10:40:27;20.00;61.20
61672;DHT22;47572;0.00000000;0.00000000;2023-02-10T10:42:57;20.00;61.10
61672;DHT22;47572;0.00000000;0.00000000;2023-02-10T10:45:28;20.10;61.00
61672;DHT22;47572;0.00000000;0.00000000;2023-02-10T10:47:59;20.00;60.90
61672;DHT22;47572;0.00000000;0.00000000;2023-02-10T10:50:26;20.00;60.90
61672;DHT22;47572;0.00000000;0.00000000;2023-02-10T10:52:55;20.10;61.00
61672;DHT22;47572;0.00000000;0.00000000;2023-02-10T10:55:30;20.00;60.80
61672;DHT22;47572;0.00000000;0.00000000;2023-02-10T10:57:57;20.10;60.70
61672;DHT22;47572;0.00000000;0.00000000;2023-02-10T11:00:27;20.10;60.60
61672;DHT22;47572;0.00000000;0.00000000;2023-02-10T11:03:00;20.10;60.70
61672;DHT22;47572;0.00000000;0.00000000;2023-02-10T11:05:37;20.10;60.60
61672;DHT22;47572;0.00000000;0.00000000;2023-02-10T11:08:04;20.10;60.60
61672;DHT22;47572;0.00000000;0.00000000;2023-02-10T11:10:53;20.10;60.70
61672;DHT22;47572;0.00000000;0.00000000;2023-02-10T11:13:20;20.10;60.60
61672;DHT22;47572;0.00000000;0.00000000;2023-02-10T11:15:47;20.10;60.60
61672;DHT22;47572;0.00000000;0.00000000;2023-02-10T11:18:23;20.10;60.60
61672;DHT22;47572;0.00000000;0.00000000;2023-02-10T11:21:09;20.10;60.60
61672;DHT22;47572;0.00000000;0.00000000;2023-02-10T11:23:53;20.10;60.50
61672;DHT22;47572;0.00000000;0.00000000;2023-02-10T11:26:24;20.10;60.50
61672;DHT22;47572;0.00000000;0.00000000;2023-02-10T11:28:51;20.10;60.50
61672;DHT22;47572;0.00000000;0.00000000;2023-02-10T11:31:37;20.10;60.30
61672;DHT22;47572;0.00000000;0.00000000;2023-02-10T11:34:14;20.10;60.20
61672;DHT22;47572;0.00000000;0.00000000;2023-02-10T11:36:43;20.10;60.00
61672;DHT22;47572;0.00000000;0.00000000;2023-02-10T11:41:52;20.20;59.90
61672;DHT22;47572;0.00000000;0.00000000;2023-02-10T11:44:27;20.20;59.80
61672;DHT22;47572;0.00000000;0.00000000;2023-02-10T11:47:00;20.20;59.70
61672;DHT22;47572;0.00000000;0.00000000;2023-02-10T11:49:27;20.20;59.50
61672;DHT22;47572;0.00000000;0.00000000;2023-02-10T11:51:59;20.20;59.50
61672;DHT22;47572;0.00000000;0.00000000;2023-02-10T11:54:26;20.20;59.40
61672;DHT22;47572;0.00000000;0.00000000;2023-02-10T12:00:19;20.10;59.10
61672;DHT22;47572;0.00000000;0.00000000;2023-02-10T12:06:05;20.00;59.40
61672;DHT22;47572;0.00000000;0.00000000;2023-02-10T12:12:11;19.90;59.90
61672;DHT22;47572;0.00000000;0.00000000;2023-02-10T12:37:28;19.70;61.20
61672;DHT22;47572;0.00000000;0.00000000;2023-02-10T12:45:32;20.00;60.70
61672;DHT22;47572;0.00000000;0.00000000;2023-02-10T12:53:48;20.20;60.40
61672;DHT22;47572;0.00000000;0.00000000;2023-02-10T12:56:29;20.20;60.30
61672;DHT22;47572;0.00000000;0.00000000;2023-02-10T12:59:04;20.30;60.40
61672;DHT22;47572;0.00000000;0.00000000;2023-02-10T13:01:42;20.40;60.40
61672;DHT22;47572;0.00000000;0.00000000;2023-02-10T13:04:31;20.30;60.40
61672;DHT22;47572;0.00000000;0.00000000;2023-02-10T13:07:02;20.30;60.20
61672;DHT22;47572;0.00000000;0.00000000;2023-02-10T13:09:44;20.30;59.80
61672;DHT22;47572;0.00000000;0.00000000;2023-02-10T13:14:45;20.30;59.40
61672;DHT22;47572;0.00000000;0.00000000;2023-02-10T13:17:13;20.30;59.40
61672;DHT22;47572;0.00000000;0.00000000;2023-02-10T13:22:39;20.40;59.20
61672;DHT22;47572;0.00000000;0.00000000;2023-02-10T13:25:16;20.40;59.10
61672;DHT22;47572;0.00000000;0.00000000;2023-02-10T13:27:52;20.40;59.20
61672;DHT22;47572;0.00000000;0.00000000;2023-02-10T13:31:01;20.40;59.30
61672;DHT22;47572;0.00000000;0.00000000;2023-02-10T13:36:15;20.50;59.50
61672;DHT22;47572;0.00000000;0.00000000;2023-02-10T13:38:42;20.50;59.50
61672;DHT22;47572;0.00000000;0.00000000;2023-02-10T13:41:24;20.60;59.50
61672;DHT22;47572;0.00000000;0.00000000;2023-02-10T13:44:29;20.60;59.50
61672;DHT22;47572;0.00000000;0.00000000;2023-02-10T13:47:23;20.60;59.50
61672;DHT22;47572;0.00000000;0.00000000;2023-02-10T13:50:15;20.60;59.40
61672;DHT22;47572;0.00000000;0.00000000;2023-02-10T13:57:56;20.60;59.60
61672;DHT22;47572;0.00000000;0.00000000;2023-02-10T14:00:25;20.60;59.70
61672;DHT22;47572;0.00000000;0.00000000;2023-02-10T14:02:59;20.60;59.80
61672;DHT22;47572;0.00000000;0.00000000;2023-02-10T14:05:31;20.50;59.80
61672;DHT22;47572;0.00000000;0.00000000;2023-02-10T14:07:58;20.50;59.80
61672;DHT22;47572;0.00000000;0.00000000;2023-02-10T14:15:40;20.50;59.50
61672;DHT22;47572;0.00000000;0.00000000;2023-02-10T14:20:54;20.40;59.70
61672;DHT22;47572;0.00000000;0.00000000;2023-02-10T14:23:20;20.40;59.60
61672;DHT22;47572;0.00000000;0.00000000;2023-02-10T14:25:48;20.40;59.40
61672;DHT22;47572;0.00000000;0.00000000;2023-02-10T14:28:27;20.40;59.40
61672;DHT22;47572;0.00000000;0.00000000;2023-02-10T14:30:54;20.50;59.50
61672;DHT22;47572;0.00000000;0.00000000;2023-02-10T14:33:28;20.50;59.50
61672;DHT22;47572;0.00000000;0.00000000;2023-02-10T14:35:57;20.50;59.40
61672;DHT22;47572;0.00000000;0.00000000;2023-02-10T14:38:29;20.50;59.20
61672;DHT22;47572;0.00000000;0.00000000;2023-02-10T14:40:56;20.50;59.10
61672;DHT22;47572;0.00000000;0.00000000;2023-02-10T14:43:26;20.50;59.00
61672;DHT22;47572;0.00000000;0.00000000;2023-02-10T14:45:53;20.50;58.90
61672;DHT22;47572;0.00000000;0.00000000;2023-02-10T14:48:21;20.50;58.80
61672;DHT22;47572;0.00000000;0.00000000;2023-02-10T14:51:01;20.50;58.80
61672;DHT22;47572;0.00000000;0.00000000;2023-02-10T14:53:27;20.50;58.80
61672;DHT22;47572;0.00000000;0.00000000;2023-02-10T14:55:56;20.50;58.90
61672;DHT22;47572;0.00000000;0.00000000;2023-02-10T14:58:23;20.50;58.90
61672;DHT22;47572;0.00000000;0.00000000;2023-02-10T15:03:35;20.40;58.80
61672;DHT22;47572;0.00000000;0.00000000;2023-02-10T15:06:01;20.40;58.90
61672;DHT22;47572;0.00000000;0.00000000;2023-02-10T15:08:38;20.40;58.90
61672;DHT22;47572;0.00000000;0.00000000;2023-02-10T15:11:11;20.40;58.80
61672;DHT22;47572;0.00000000;0.00000000;2023-02-10T15:13:44;20.50;58.90
61672;DHT22;47572;0.00000000;0.00000000;2023-02-10T15:16:13;20.50;59.80
61672;DHT22;47572;0.00000000;0.00000000;2023-02-10T15:18:43;20.50;59.00
61672;DHT22;47572;0.00000000;0.00000000;2023-02-10T15:21:32;20.40;58.70
61672;DHT22;47572;0.00000000;0.00000000;2023-02-10T15:23:59;20.40;58.70
61672;DHT22;47572;0.00000000;0.00000000;2023-02-10T15:26:29;20.40;58.70
61672;DHT22;47572;0.00000000;0.00000000;2023-02-10T15:29:15;20.40;58.90
61672;DHT22;47572;0.00000000;0.00000000;2023-02-10T15:31:50;20.40;59.00
61672;DHT22;47572;0.00000000;0.00000000;2023-02-10T15:34:29;20.40;59.10
61672;DHT22;47572;0.00000000;0.00000000;2023-02-10T15:37:03;20.40;59.30
61672;DHT22;47572;0.00000000;0.00000000;2023-02-10T15:39:34;20.40;59.50
61672;DHT22;47572;0.00000000;0.00000000;2023-02-10T15:50:03;20.40;59.80
61672;DHT22;47572;0.00000000;0.00000000;2023-02-10T15:52:38;20.30;59.90